ONE weather

Santa Patricia Airport
Ciudad Obregon, Sonora, Mexico

Public forecast

Using degrees Celsius for public forecast. Weather courtesy of forecast.io.

Closest aviation weather report (METAR) to Santa Patricia Airport

Report is more than 6 hours old.

Closest report is Ciudad Obregón International Airport, 14.1 nm (26.1 km) ESE. Retrieved 2020/05/27 00:40 UTC (10 hours ago):

MMCN 270040Z 24007KT 10SM BKN200 30/14 A2977 RMK 8/008 HZY

Closest aviation forecast (TAF) to Santa Patricia Airport

Closest forecast is Ciudad Obregón International Airport, 14.1 nm (26.1 km) ESE. Retrieved 2020/05/27 06:36 UTC (4 hours ago):

TAF MMCN 270435Z 2706/2806 24005KT P6SM SCT200 FM271800 24010KT P6SM BKN200 FM280300 00000KT P6SM SKC